IPT - Williamsport Rgnl

Pirep is a free, collaborative database of all public and private airports located within the United States. All pilots are welcome to contribute, edit, and improve any airport they have local knowledge about, no registration required.
Uploaded photos will be licensed under a CC BY-SA 4.0 license. Please only upload photos you have the rights to use.
Tags
Public
Car Rental
METAR / TAF
Edit Tags
Food
Camping
Lodging
Bicycles
Swimming
Golfing
Fishing
Hot Springs
Museum
Flying Clubs
Airpark
Upcoming Events
No upcoming events. Is anything happening here soon?
*
*
*

Where exactly on/near the airport is this event taking place?

Is there a webpage with more information for this event?

Who should be contacted for more information?

What is this event all about?

Repeat every
Description
Last updated: 2023-05-24 22:19:44 EDT
Transient Parking
Fuel Location
Landing & Tie-down Fees
Crew Car Availability
Flying Clubs
WiFi Access
Airport Statistics
Location: Williamsport, PA
Elevation: 528ft
Sectional: New York
Activation date: Apr 1938
Fuel: 100LL, A (prices)
Runway 09/27: 6,825ft
Runway 12/30: 4,273ft
Access: Open to the public
Current Weather — VFR
  • Weather data is strictly informational and not for flight planning purposes.
  • METAR
    2024-04-22 07:54:00 EDT
    Ceiling Wind Temperature Dewpoint Weather Visbility
    Sky clear 280° @ 5kt 37°F 28°F N/A 10SM
    Raw: KIPT 221154Z 28005KT 10SM CLR 03/M02 A3010 RMK AO2 SLP196 T00281022 10028 21011 52015
  • TAF
    2024-04-22 08:00:00 EDT – 2024-04-22 12:00:00 EDT
    Ceiling Wind Weather Visbility
    Sky clear 340° @ 3kt N/A 6SM
    Clouds: @ ft
    Raw: KIPT 221131Z 2212/2312 34003KT P6SM SKC FM221600 31008G14KT P6SM SKC FM222300 32005KT P6SM SKC
  • TAF
    2024-04-22 12:00:00 EDT – 2024-04-22 19:00:00 EDT
    Ceiling Wind Weather Visbility
    Sky clear 310° @ 8kt, gusts 14kt N/A 6SM
    Clouds: @ ft
    Raw: KIPT 221131Z 2212/2312 34003KT P6SM SKC FM221600 31008G14KT P6SM SKC FM222300 32005KT P6SM SKC
  • TAF
    2024-04-22 19:00:00 EDT – 2024-04-23 08:00:00 EDT
    Ceiling Wind Weather Visbility
    Sky clear 320° @ 5kt N/A 6SM
    Clouds: @ ft
    Raw: KIPT 221131Z 2212/2312 34003KT P6SM SKC FM221600 31008G14KT P6SM SKC FM222300 32005KT P6SM SKC
Click/tap to add an annotation marker to the map
Airport Webcams
No webcams added yet.
Direct links to live image URLs will be displayed inline on this page. URLs to separate webpages will be linked to.
URL:
Direct links to live image URLs will be displayed inline on this page. URLs to separate webpages will be linked to.
URL:
Remarks
  • Estab prior to rqmt
  • Ppr 12 hrs for unsked acr opns with more than 30 psgr seats call amgr. index a coverage avbl 0700-1700 and btn 1700-0700 upon req call amgr. index b coverage avbl upon req call amgr.
  • Deer & birds on & invof arpt spcly aer 27 & aer 30
  • Twy 'j' clsd to acft with wing span over 78 ft.
  • For landside access fm arpt after hrs use computerized gate system at east end or fbo apron.
Comments
Leave a comment What was your experience like at this airport?